Time;durP1;ratioP1;P1;durP2;ratioP2;P2;SDS_P1;SDS_P2;PMS_P1;PMS_P2;Temp;Humidity;BMP_temperature;BMP_pressure;BME280_temperature;BME280_humidity;BME280_pressure;Samples;Min_cycle;Max_cycle;Signal;HPM_P1;HPM_P2
2023/10/21 00:00:24;;;;;;;1365.27;525.67;;;9.40;99.90;;;;;;5155894;27;20410;-85
2023/10/21 00:02:51;;;;;;;1416.00;538.47;;;9.40;99.90;;;;;;5137401;27;20045;-86
2023/10/21 00:05:17;;;;;;;1367.50;521.37;;;9.40;99.90;;;;;;5120187;27;20038;-86
2023/10/21 00:07:43;;;;;;;1360.00;516.57;;;9.20;99.90;;;;;;5156178;27;20038;-85
2023/10/21 00:10:09;;;;;;;1366.07;517.73;;;9.60;99.90;;;;;;5136765;27;20078;-86
2023/10/21 00:12:36;;;;;;;1418.50;538.37;;;9.20;99.90;;;;;;5137180;27;20458;-86
2023/10/21 00:15:06;;;;;;;1412.87;532.07;;;9.30;99.90;;;;;;5156750;27;20043;-86
2023/10/21 00:17:33;;;;;;;1417.73;533.60;;;9.30;99.90;;;;;;5137551;27;20043;-86
2023/10/21 00:19:59;;;;;;;1407.40;528.87;;;9.50;99.90;;;;;;5137102;27;20038;-85
2023/10/21 00:22:29;;;;;;;1371.40;526.97;;;9.70;99.90;;;;;;5137107;27;20042;-86
2023/10/21 00:24:54;;;;;;;1375.43;535.23;;;9.30;99.90;;;;;;5135923;27;20042;-87
2023/10/21 00:27:20;;;;;;;1414.17;532.17;;;10.20;99.90;;;;;;5155584;27;20046;-87
2023/10/21 00:29:46;;;;;;;1425.27;539.93;;;9.40;99.90;;;;;;5156012;27;20039;-88
2023/10/21 00:32:11;;;;;;;1383.37;533.90;;;9.30;99.90;;;;;;5156003;27;20426;-86
2023/10/21 00:34:40;;;;;;;1417.47;536.23;;;9.30;99.90;;;;;;5155551;27;20042;-85
2023/10/21 00:37:07;;;;;;;1419.43;534.00;;;9.50;99.90;;;;;;5155774;27;20503;-85
2023/10/21 00:39:34;;;;;;;1423.37;532.90;;;9.40;99.90;;;;;;5158013;27;20086;-88
2023/10/21 00:42:04;;;;;;;1372.67;526.83;;;9.90;99.90;;;;;;5139386;27;20045;-85
2023/10/21 00:44:30;;;;;;;1381.57;517.87;;;9.20;99.90;;;;;;5138835;27;20129;-88
2023/10/21 00:46:59;;;;;;;1368.97;519.23;;;9.50;99.90;;;;;;5138213;27;20376;-87
2023/10/21 00:49:34;;;;;;;1417.40;533.37;;;9.30;99.90;;;;;;5177106;27;20045;-88
2023/10/21 00:52:00;;;;;;;1370.43;525.65;;;10.10;99.90;;;;;;5176563;27;20513;-87
2023/10/21 00:54:26;;;;;;;1370.80;523.47;;;9.30;99.90;;;;;;5174762;27;20070;-85
2023/10/21 00:56:55;;;;;;;1431.20;537.40;;;9.90;99.90;;;;;;5128190;27;20463;-85
2023/10/21 00:59:23;;;;;;;1376.83;533.17;;;9.30;99.90;;;;;;5155000;27;20402;-86
2023/10/21 01:01:49;;;;;;;1377.33;528.20;;;9.40;99.90;;;;;;5136576;27;20039;-86
2023/10/21 01:04:16;;;;;;;1381.20;532.33;;;9.80;99.90;;;;;;5136137;27;20038;-85
2023/10/21 01:06:43;;;;;;;1384.63;534.27;;;10.20;99.90;;;;;;5118959;27;20035;-87
2023/10/21 01:09:10;;;;;;;1380.37;532.73;;;9.50;99.90;;;;;;5137135;27;20035;-86
2023/10/21 01:11:37;;;;;;;1433.53;538.70;;;10.30;99.90;;;;;;5154450;27;20042;-86
2023/10/21 01:14:03;;;;;;;1377.73;525.63;;;10.30;99.90;;;;;;5136460;27;20062;-87
2023/10/21 01:16:29;;;;;;;1383.17;529.23;;;10.00;99.90;;;;;;5154682;27;20492;-86
2023/10/21 01:18:54;;;;;;;1436.07;532.33;;;9.60;99.90;;;;;;5135456;27;20043;-85
2023/10/21 01:21:20;;;;;;;1435.33;532.87;;;9.60;99.90;;;;;;5155880;27;20042;-86
2023/10/21 01:23:46;;;;;;;1435.43;533.83;;;9.60;99.90;;;;;;5156878;27;20492;-86
2023/10/21 01:26:12;;;;;;;1437.20;539.23;;;10.00;99.90;;;;;;5157066;27;20092;-85
2023/10/21 01:28:38;;;;;;;1440.63;538.97;;;10.10;99.90;;;;;;5146628;27;20054;-86
2023/10/21 01:31:04;;;;;;;1443.10;537.97;;;10.00;99.90;;;;;;5135713;27;20482;-85
2023/10/21 01:33:30;;;;;;;1440.97;538.40;;;9.70;99.90;;;;;;5136239;27;20037;-86
2023/10/21 01:35:55;;;;;;;1442.60;535.57;;;10.40;99.90;;;;;;5136359;27;20046;-86
2023/10/21 01:38:21;;;;;;;1381.33;529.43;;;10.00;99.90;;;;;;5118522;27;20049;-85
2023/10/21 01:40:47;;;;;;;1384.23;532.03;;;9.90;99.90;;;;;;5154076;27;20043;-86
2023/10/21 01:43:13;;;;;;;1388.53;532.47;;;10.40;99.90;;;;;;5136092;27;20043;-87
2023/10/21 01:45:40;;;;;;;1379.60;522.10;;;9.90;99.90;;;;;;5155257;27;20050;-86
2023/10/21 01:48:06;;;;;;;1448.57;542.57;;;10.60;99.90;;;;;;5156185;27;20493;-86
2023/10/21 01:50:32;;;;;;;1376.37;521.90;;;9.70;99.90;;;;;;5164510;27;20125;-86
2023/10/21 01:52:58;;;;;;;1444.13;542.33;;;9.70;99.90;;;;;;5140050;27;20157;-86
2023/10/21 01:55:24;;;;;;;1381.03;530.30;;;9.70;99.90;;;;;;5158666;27;20042;-85
2023/10/21 01:57:50;;;;;;;1443.63;544.33;;;10.20;99.90;;;;;;5139708;27;20039;-87
2023/10/21 02:00:20;;;;;;;1441.90;546.80;;;9.60;99.90;;;;;;5139453;27;20046;-85
2023/10/21 02:02:54;;;;;;;1438.40;546.20;;;9.60;99.90;;;;;;5122424;27;20042;-85
2023/10/21 02:05:22;;;;;;;1374.93;525.03;;;9.90;99.90;;;;;;5122251;27;20046;-86
2023/10/21 02:07:49;;;;;;;1380.67;531.90;;;9.60;99.90;;;;;;5158396;27;20131;-87
2023/10/21 02:10:17;;;;;;;1376.80;529.93;;;9.50;99.90;;;;;;5157945;27;20045;-86
2023/10/21 02:12:42;;;;;;;1430.10;537.97;;;9.50;99.90;;;;;;5136082;27;20483;-85
2023/10/21 02:15:14;;;;;;;1368.93;522.40;;;10.00;99.90;;;;;;5137380;27;20167;-87
2023/10/21 02:17:44;;;;;;;1428.23;539.47;;;9.50;99.90;;;;;;5154095;27;20050;-86
2023/10/21 02:20:14;;;;;;;1432.73;539.07;;;9.40;99.90;;;;;;5157967;27;20443;-86
2023/10/21 02:22:41;;;;;;;1377.47;519.03;;;9.50;99.90;;;;;;5138423;27;20047;-86
2023/10/21 02:25:11;;;;;;;1376.53;527.13;;;10.10;99.90;;;;;;5139410;27;20558;-88
2023/10/21 02:27:39;;;;;;;1367.33;521.43;;;10.00;99.90;;;;;;5139533;27;20050;-86
2023/10/21 02:30:07;;;;;;;1427.37;539.37;;;9.50;99.90;;;;;;5158140;27;20057;-87
2023/10/21 02:32:33;;;;;;;1420.90;539.80;;;9.50;99.90;;;;;;5121830;27;20070;-86
2023/10/21 02:34:59;;;;;;;1356.07;520.47;;;9.40;99.90;;;;;;5122918;27;20066;-86
2023/10/21 02:37:24;;;;;;;1411.13;538.43;;;9.50;99.90;;;;;;5138963;27;20174;-86
2023/10/21 02:39:50;;;;;;;1416.57;539.00;;;9.40;99.90;;;;;;5139023;27;20043;-87
2023/10/21 02:42:16;;;;;;;1417.60;541.80;;;9.60;99.90;;;;;;5157302;27;20043;-86
2023/10/21 02:44:42;;;;;;;1416.27;542.57;;;9.60;99.90;;;;;;5157189;27;20395;-85
2023/10/21 02:47:07;;;;;;;1354.80;527.90;;;10.10;99.90;;;;;;5121827;27;20046;-85
2023/10/21 02:49:33;;;;;;;1354.80;523.10;;;9.90;99.90;;;;;;5145969;27;20138;-88
2023/10/21 02:51:59;;;;;;;1351.10;524.77;;;9.40;99.90;;;;;;5147059;27;20034;-87
2023/10/21 02:54:25;;;;;;;1417.57;544.83;;;9.40;99.90;;;;;;5123321;27;20084;-87
2023/10/21 02:56:51;;;;;;;1352.20;517.40;;;9.20;99.90;;;;;;5140494;27;20043;-87
2023/10/21 02:59:17;;;;;;;1411.27;537.17;;;9.20;99.90;;;;;;5157446;27;20039;-86
2023/10/21 03:01:42;;;;;;;1358.30;513.57;;;9.50;99.90;;;;;;5157521;27;20425;-87
2023/10/21 03:04:08;;;;;;;1355.77;517.40;;;9.40;99.90;;;;;;5138186;27;20556;-85
2023/10/21 03:06:34;;;;;;;1353.73;520.03;;;9.10;99.90;;;;;;5157223;27;20061;-86
2023/10/21 03:08:59;;;;;;;1406.43;534.70;;;9.10;99.90;;;;;;5139094;27;20035;-88
2023/10/21 03:11:25;;;;;;;1403.53;535.07;;;9.10;99.90;;;;;;5157211;27;20092;-88
2023/10/21 03:13:51;;;;;;;1341.30;512.83;;;9.30;99.90;;;;;;5156332;27;20080;-87
2023/10/21 03:16:17;;;;;;;1330.57;510.50;;;9.20;99.90;;;;;;5156802;27;20483;-87
2023/10/21 03:18:45;;;;;;;1383.20;534.23;;;9.50;99.90;;;;;;5138370;27;20050;-85
2023/10/21 03:21:11;;;;;;;1380.63;538.97;;;9.70;99.90;;;;;;5138357;27;20050;-86
2023/10/21 03:23:37;;;;;;;1370.37;535.07;;;9.30;99.90;;;;;;5156518;27;20046;-89
2023/10/21 03:26:07;;;;;;;1393.67;539.73;;;9.30;99.90;;;;;;5161128;27;20448;-86
2023/10/21 03:28:33;;;;;;;1336.80;519.13;;;9.30;99.90;;;;;;5156783;27;20039;-88
2023/10/21 03:31:00;;;;;;;1385.53;538.23;;;9.20;99.90;;;;;;5157061;27;20050;-87
2023/10/21 03:33:28;;;;;;;1374.37;536.67;;;9.30;99.90;;;;;;5157000;27;20127;-86
2023/10/21 03:35:55;;;;;;;1367.37;538.07;;;9.40;99.90;;;;;;5120339;27;20486;-86
2023/10/21 03:38:21;;;;;;;1368.07;534.03;;;10.10;99.90;;;;;;5121205;27;20137;-86
2023/10/21 03:40:57;;;;;;;1340.37;526.87;;;10.10;99.90;;;;;;5138071;27;20045;-85
2023/10/21 03:43:23;;;;;;;;;;;9.70;99.90;;;;;;5138199;27;20046;-85
2023/10/21 03:45:49;;;;;;;1385.10;533.53;;;9.40;99.90;;;;;;5120704;27;19919;-86
2023/10/21 03:48:15;;;;;;;1342.07;523.93;;;9.20;99.90;;;;;;5137681;27;20101;-84
2023/10/21 03:50:40;;;;;;;1339.17;531.27;;;9.70;99.90;;;;;;5137788;27;20049;-87
2023/10/21 03:53:06;;;;;;;1379.77;537.03;;;9.60;99.90;;;;;;5138060;27;20448;-86
2023/10/21 03:55:32;;;;;;;1375.53;537.87;;;9.60;99.90;;;;;;5137730;27;20037;-88
2023/10/21 03:57:57;;;;;;;1320.37;514.00;;;9.90;99.90;;;;;;5134724;27;20043;-86
2023/10/21 04:00:23;;;;;;;1314.07;514.40;;;10.00;99.90;;;;;;5100804;27;20095;-85
2023/10/21 04:02:49;;;;;;;1309.43;518.87;;;9.80;99.90;;;;;;5159357;27;20518;-86
2023/10/21 04:05:17;;;;;;;1310.90;523.17;;;9.40;99.90;;;;;;5170541;27;20038;-85
2023/10/21 04:07:44;;;;;;;1355.80;541.97;;;9.50;99.90;;;;;;5155370;27;20039;-88
2023/10/21 04:10:10;;;;;;;1348.73;542.70;;;9.90;99.90;;;;;;5137157;27;20050;-86
2023/10/21 04:12:36;;;;;;;1288.63;512.57;;;9.50;99.90;;;;;;5137656;27;20082;-87
2023/10/21 04:15:03;;;;;;;1289.73;513.67;;;9.50;99.90;;;;;;5137544;27;20043;-86
2023/10/21 04:17:29;;;;;;;1325.63;534.83;;;9.50;99.90;;;;;;5119797;27;20122;-86
2023/10/21 04:19:55;;;;;;;1316.97;537.27;;;9.60;99.90;;;;;;5135217;27;20743;-85
2023/10/21 04:22:20;;;;;;;1318.53;536.50;;;10.50;99.90;;;;;;5155014;27;20070;-85
2023/10/21 04:24:46;;;;;;;1310.50;537.03;;;9.60;99.90;;;;;;5155513;27;20149;-87
2023/10/21 04:27:12;;;;;;;1305.40;535.67;;;9.60;99.90;;;;;;5119392;27;20030;-85
2023/10/21 04:29:38;;;;;;;1266.67;513.83;;;10.00;99.90;;;;;;5136660;27;20078;-86
2023/10/21 04:32:04;;;;;;;1264.97;515.13;;;9.60;99.90;;;;;;5139844;27;20038;-86
2023/10/21 04:34:29;;;;;;;1292.00;533.43;;;9.60;99.90;;;;;;5176493;27;20181;-85
2023/10/21 04:36:55;;;;;;;1253.10;505.20;;;9.60;99.90;;;;;;5157366;27;20106;-85
2023/10/21 04:39:21;;;;;;;1253.07;511.83;;;9.50;99.90;;;;;;5142914;27;20042;-85
2023/10/21 04:41:50;;;;;;;1247.13;508.47;;;9.50;99.90;;;;;;5175930;27;20030;-85
2023/10/21 04:44:15;;;;;;;1246.40;500.23;;;9.70;99.90;;;;;;5139850;27;20046;-86
2023/10/21 04:46:42;;;;;;;1246.10;504.47;;;10.20;99.90;;;;;;5157548;27;20406;-85
2023/10/21 04:49:08;;;;;;;1246.60;509.07;;;9.40;99.90;;;;;;5145419;27;20042;-85
2023/10/21 04:51:33;;;;;;;1279.47;533.30;;;9.90;99.90;;;;;;5154478;27;20034;-86
2023/10/21 04:53:59;;;;;;;1276.93;534.33;;;9.30;99.90;;;;;;5147593;27;20043;-87
2023/10/21 04:56:28;;;;;;;1241.93;509.77;;;10.10;99.90;;;;;;5153781;27;20072;-85
2023/10/21 04:58:53;;;;;;;1241.30;502.77;;;9.90;99.90;;;;;;5152095;27;20518;-86
2023/10/21 05:01:19;;;;;;;1236.17;501.87;;;9.20;99.90;;;;;;5136579;27;20047;-85
2023/10/21 05:03:45;;;;;;;1266.83;529.80;;;10.00;99.90;;;;;;5136074;27;20043;-85
2023/10/21 05:06:11;;;;;;;1272.60;536.10;;;9.20;99.90;;;;;;5136208;27;20043;-85
2023/10/21 05:08:36;;;;;;;1269.70;529.43;;;9.20;99.90;;;;;;5155049;27;20053;-86
2023/10/21 05:11:02;;;;;;;1270.30;536.33;;;9.20;99.90;;;;;;5158652;27;20494;-85
2023/10/21 05:13:28;;;;;;;1230.07;493.73;;;9.30;99.90;;;;;;5115009;27;20112;-85
2023/10/21 05:15:54;;;;;;;1235.20;502.53;;;9.10;99.90;;;;;;5136143;27;20390;-85
2023/10/21 05:18:20;;;;;;;1272.93;534.60;;;8.80;99.90;;;;;;5132590;27;20047;-85
2023/10/21 05:20:46;;;;;;;1232.57;495.57;;;9.00;99.90;;;;;;5132420;27;20042;-86
2023/10/21 05:23:11;;;;;;;1268.23;531.80;;;9.00;99.90;;;;;;5133587;27;20027;-86
2023/10/21 05:25:37;;;;;;;1237.40;495.63;;;9.00;99.90;;;;;;5138942;27;20039;-85
2023/10/21 05:28:03;;;;;;;1230.10;495.47;;;9.20;99.90;;;;;;5135384;27;20109;-86
2023/10/21 05:30:29;;;;;;;1230.43;493.10;;;9.00;99.90;;;;;;5133368;27;20084;-86
2023/10/21 05:32:55;;;;;;;1234.40;502.60;;;9.60;99.90;;;;;;5130754;27;20020;-86
2023/10/21 05:35:21;;;;;;;1271.77;530.83;;;9.20;99.90;;;;;;5141510;27;20047;-86
2023/10/21 05:37:47;;;;;;;1271.03;527.37;;;9.60;99.90;;;;;;5115160;28;20495;-85
2023/10/21 05:40:13;;;;;;;1270.57;525.60;;;8.90;99.90;;;;;;5132250;27;20054;-85
2023/10/21 05:42:39;;;;;;;1236.27;495.77;;;8.90;99.90;;;;;;5132439;28;20043;-85
2023/10/21 05:45:07;;;;;;;1263.43;525.40;;;8.80;99.90;;;;;;5114899;28;20043;-85
2023/10/21 05:47:33;;;;;;;1263.87;529.93;;;8.80;99.90;;;;;;5133607;28;20077;-85
2023/10/21 05:49:59;;;;;;;1219.90;489.50;;;9.50;99.90;;;;;;5130131;27;20044;-85
2023/10/21 05:52:25;;;;;;;1252.40;524.03;;;8.80;99.90;;;;;;5113754;28;20542;-87
2023/10/21 05:54:51;;;;;;;1255.60;526.53;;;8.70;99.90;;;;;;5133956;27;20027;-86
2023/10/21 05:57:16;;;;;;;1256.87;526.33;;;9.40;99.90;;;;;;5132645;27;20192;-85
2023/10/21 05:59:42;;;;;;;1219.43;486.00;;;8.70;99.90;;;;;;5132049;27;20086;-85
2023/10/21 06:02:08;;;;;;;1222.37;491.23;;;8.60;99.90;;;;;;5132356;28;20117;-85
2023/10/21 06:04:34;;;;;;;1224.40;484.23;;;9.20;99.90;;;;;;5133578;28;20070;-85
2023/10/21 06:07:00;;;;;;;1222.77;490.07;;;8.90;99.90;;;;;;5132853;28;20432;-86
2023/10/21 06:09:26;;;;;;;1223.37;486.43;;;8.60;99.90;;;;;;5132141;28;20051;-86
2023/10/21 06:11:52;;;;;;;1263.73;524.63;;;8.60;99.90;;;;;;5114527;28;20040;-85
2023/10/21 06:14:18;;;;;;;1257.53;526.20;;;8.60;99.90;;;;;;5148517;27;20475;-85
2023/10/21 06:16:44;;;;;;;1217.37;483.67;;;8.90;99.90;;;;;;5152505;27;20129;-86
2023/10/21 06:19:10;;;;;;;1216.43;486.17;;;8.60;99.90;;;;;;5135546;27;20383;-85
2023/10/21 06:21:37;;;;;;;1256.60;523.97;;;8.90;99.90;;;;;;5152936;27;20466;-85
2023/10/21 06:24:07;;;;;;;1218.37;486.00;;;8.70;99.90;;;;;;5143996;27;20093;-86
2023/10/21 06:26:33;;;;;;;1224.43;484.70;;;8.70;99.90;;;;;;5132937;28;20078;-85
2023/10/21 06:28:59;;;;;;;1259.43;526.53;;;9.50;99.90;;;;;;5131904;27;20084;-86
2023/10/21 06:31:26;;;;;;;1261.10;522.23;;;8.80;99.90;;;;;;5135833;27;20096;-85
2023/10/21 06:33:53;;;;;;;1262.23;527.63;;;9.50;99.90;;;;;;5138949;27;20130;-85
2023/10/21 06:36:19;;;;;;;1260.97;524.10;;;9.60;99.90;;;;;;5156314;27;20042;-87
2023/10/21 06:38:45;;;;;;;1267.13;526.27;;;8.80;99.90;;;;;;5139265;27;20042;-83
2023/10/21 06:41:10;;;;;;;1227.73;492.40;;;9.00;99.90;;;;;;5135581;27;20467;-87
2023/10/21 06:43:37;;;;;;;1226.60;486.00;;;9.50;99.90;;;;;;5118263;27;20035;-84
2023/10/21 06:46:03;;;;;;;1257.80;525.63;;;9.10;99.90;;;;;;5155051;27;20078;-85
2023/10/21 06:48:29;;;;;;;1256.27;523.20;;;9.00;99.90;;;;;;5139164;27;20043;-86
2023/10/21 06:50:55;;;;;;;1221.10;485.30;;;9.70;99.90;;;;;;5138876;27;20096;-85
2023/10/21 06:53:21;;;;;;;1257.57;524.10;;;9.60;99.90;;;;;;5136689;27;20043;-85
2023/10/21 06:55:49;;;;;;;1220.77;491.63;;;9.70;99.90;;;;;;5137595;27;20054;-85
2023/10/21 06:58:14;;;;;;;1212.00;485.67;;;9.30;99.90;;;;;;5155884;27;20034;-86
2023/10/21 07:00:40;;;;;;;1242.27;526.80;;;9.70;99.90;;;;;;5148886;27;20176;-85
2023/10/21 07:03:07;;;;;;;1242.07;522.83;;;10.00;99.90;;;;;;5134883;27;20039;-84
2023/10/21 07:05:33;;;;;;;1209.37;483.67;;;9.30;99.90;;;;;;5118204;27;20043;-85
2023/10/21 07:07:59;;;;;;;1210.83;484.93;;;9.90;99.90;;;;;;5136394;27;20479;-85
2023/10/21 07:10:29;;;;;;;1213.87;488.77;;;9.60;99.90;;;;;;5135791;27;20057;-86
2023/10/21 07:12:55;;;;;;;1215.20;491.63;;;9.30;99.90;;;;;;5135782;27;20055;-86
2023/10/21 07:15:21;;;;;;;1254.60;528.67;;;9.40;99.90;;;;;;5136044;27;20055;-87
2023/10/21 07:17:46;;;;;;;1216.17;486.17;;;10.10;99.90;;;;;;5134898;27;20061;-88
2023/10/21 07:20:13;;;;;;;1222.07;496.53;;;10.30;99.90;;;;;;5134664;27;20407;-85
2023/10/21 07:22:43;;;;;;;1252.23;526.33;;;9.50;99.90;;;;;;5134186;27;20039;-85
2023/10/21 07:25:10;;;;;;;1250.83;525.90;;;10.00;99.90;;;;;;5134608;27;20054;-85
2023/10/21 07:27:35;;;;;;;1223.50;492.47;;;9.90;99.90;;;;;;5155123;27;20042;-85
2023/10/21 07:30:04;;;;;;;1267.97;533.50;;;9.70;99.90;;;;;;5156662;27;20395;-85
2023/10/21 07:32:30;;;;;;;1231.07;495.97;;;9.60;99.90;;;;;;5142688;27;20445;-85
2023/10/21 07:34:55;;;;;;;1233.03;490.60;;;9.90;99.90;;;;;;5135596;27;20039;-85
2023/10/21 07:37:21;;;;;;;1234.27;497.17;;;10.00;99.90;;;;;;5134144;27;20376;-85
2023/10/21 07:39:47;;;;;;;1228.77;494.40;;;9.90;99.90;;;;;;5134698;27;20095;-85
2023/10/21 07:42:14;;;;;;;1266.33;528.67;;;9.80;99.90;;;;;;5144579;27;20398;-87
2023/10/21 07:44:41;;;;;;;1228.33;495.10;;;10.50;99.90;;;;;;5132789;27;20051;-85
2023/10/21 07:47:07;;;;;;;1234.03;500.53;;;10.80;99.90;;;;;;5117124;27;20047;-85
2023/10/21 07:49:33;;;;;;;1231.93;499.60;;;10.00;99.90;;;;;;5134548;27;20089;-85
2023/10/21 07:51:59;;;;;;;1277.73;529.50;;;10.00;99.90;;;;;;5135461;27;20070;-85
2023/10/21 07:54:25;;;;;;;1341.17;537.90;;;10.20;99.90;;;;;;5134996;27;20088;-84
2023/10/21 07:56:52;;;;;;;1290.40;508.53;;;10.40;99.90;;;;;;5135356;27;20121;-85
2023/10/21 07:59:19;;;;;;;1360.10;532.23;;;10.20;99.90;;;;;;5134180;27;20094;-85
2023/10/21 08:01:45;;;;;;;1313.50;509.43;;;10.30;99.90;;;;;;5139629;27;20039;-85
2023/10/21 08:04:11;;;;;;;1326.73;490.63;;;10.30;99.90;;;;;;5133033;27;20046;-84
2023/10/21 08:06:38;;;;;;;1324.97;480.10;;;10.40;99.90;;;;;;5119424;27;20505;-85
2023/10/21 08:09:05;;;;;;;1313.23;470.43;;;10.70;99.90;;;;;;5152056;27;20047;-86
2023/10/21 08:11:33;;;;;;;1325.53;478.87;;;10.50;99.90;;;;;;5143794;27;20046;-85
2023/10/21 08:13:59;;;;;;;1381.93;527.57;;;10.50;99.90;;;;;;5144515;27;20046;-86
2023/10/21 08:16:25;;;;;;;1391.13;529.97;;;10.50;99.90;;;;;;5133359;27;20303;-85
2023/10/21 08:18:51;;;;;;;1334.43;491.43;;;10.60;99.90;;;;;;5133607;27;20039;-85
2023/10/21 08:21:18;;;;;;;1357.93;513.97;;;10.60;99.90;;;;;;5131733;27;20115;-86
2023/10/21 08:23:44;;;;;;;1317.37;474.67;;;10.90;99.90;;;;;;5153102;27;20111;-86
2023/10/21 08:26:09;;;;;;;1347.33;462.80;;;10.80;99.90;;;;;;5134264;27;20492;-85
2023/10/21 08:28:35;;;;;;;1365.53;513.00;;;10.80;99.90;;;;;;5133268;27;20092;-87
2023/10/21 08:31:01;;;;;;;1388.53;527.70;;;10.90;99.90;;;;;;5133174;27;20051;-85
2023/10/21 08:33:27;;;;;;;1416.00;526.33;;;11.00;99.90;;;;;;5133712;27;20182;-85
2023/10/21 08:35:52;;;;;;;1406.77;521.17;;;11.00;99.90;;;;;;5132528;27;20043;-85
2023/10/21 08:38:18;;;;;;;1373.33;525.03;;;11.10;99.90;;;;;;5133510;27;20061;-85
2023/10/21 08:40:47;;;;;;;1309.13;470.80;;;11.10;99.90;;;;;;5116201;27;20126;-85
2023/10/21 08:43:21;;;;;;;1331.40;487.97;;;11.30;99.90;;;;;;5134488;27;20043;-85
2023/10/21 08:45:48;;;;;;;1355.27;449.80;;;11.30;99.90;;;;;;5133871;27;20495;-86
2023/10/21 08:48:15;;;;;;;1328.13;470.67;;;11.60;99.90;;;;;;5134379;27;20630;-85
2023/10/21 08:50:50;;;;;;;1351.33;453.97;;;11.40;99.90;;;;;;5116506;27;20126;-88
2023/10/21 08:53:15;;;;;;;1352.73;451.77;;;11.50;99.90;;;;;;5132816;27;20076;-85
2023/10/21 08:55:41;;;;;;;1437.97;522.93;;;11.50;99.90;;;;;;5133713;27;20042;-86
2023/10/21 08:58:07;;;;;;;1441.73;521.73;;;11.70;99.90;;;;;;5115241;27;20073;-86
2023/10/21 09:00:38;;;;;;;1362.90;445.63;;;11.60;99.90;;;;;;5133232;27;20046;-86
2023/10/21 09:03:04;;;;;;;1444.27;513.17;;;11.70;99.90;;;;;;5115608;27;20130;-86
2023/10/21 09:05:30;;;;;;;1365.70;437.27;;;11.80;99.90;;;;;;5132529;27;20396;-85
2023/10/21 09:07:55;;;;;;;1370.10;434.13;;;11.90;99.90;;;;;;5132232;27;20068;-86
2023/10/21 09:10:21;;;;;;;1379.13;447.03;;;12.00;99.90;;;;;;5132188;27;20372;-87
2023/10/21 09:12:47;;;;;;;1461.47;516.90;;;12.10;99.90;;;;;;5132736;27;20051;-87
2023/10/21 09:15:13;;;;;;;1469.23;517.40;;;12.40;99.90;;;;;;5115331;27;20584;-86
2023/10/21 09:17:45;;;;;;;1360.90;439.27;;;12.30;99.90;;;;;;5132880;27;20292;-86
2023/10/21 09:20:16;;;;;;;1364.50;441.63;;;12.40;99.90;;;;;;5134009;27;20422;-85
2023/10/21 09:22:44;;;;;;;1483.33;518.90;;;12.50;99.90;;;;;;5132249;27;20776;-86
2023/10/21 09:25:20;;;;;;;1406.20;449.57;;;12.70;99.90;;;;;;5124560;27;21289;-86
2023/10/21 09:27:54;;;;;;;1374.87;450.93;;;12.80;99.90;;;;;;5127847;27;20280;-86
2023/10/21 09:30:25;;;;;;;1487.37;521.60;;;12.90;99.90;;;;;;5114745;28;20376;-86
2023/10/21 09:33:00;;;;;;;1384.57;480.63;;;13.10;99.90;;;;;;5133544;27;20313;-86
2023/10/21 09:35:27;;;;;;;1485.30;529.30;;;13.20;99.90;;;;;;5132651;27;20312;-86
2023/10/21 09:37:53;;;;;;;1491.63;527.37;;;13.20;99.90;;;;;;5133480;27;20067;-86
2023/10/21 09:40:21;;;;;;;1487.00;526.40;;;13.20;99.90;;;;;;5133570;27;20364;-86
2023/10/21 09:42:52;;;;;;;1489.50;528.80;;;13.40;99.90;;;;;;5132057;28;20291;-86
2023/10/21 09:45:18;;;;;;;1388.60;463.30;;;13.50;99.90;;;;;;5133703;28;20110;-87
2023/10/21 09:47:45;;;;;;;1398.77;451.67;;;13.50;99.90;;;;;;5133517;28;20411;-86
2023/10/21 09:50:13;;;;;;;1462.80;524.70;;;13.50;99.90;;;;;;5133388;28;20303;-86
2023/10/21 09:52:56;;;;;;;1478.13;526.30;;;13.50;99.90;;;;;;5115326;28;20335;-86
2023/10/21 09:55:27;;;;;;;1472.23;529.97;;;13.60;99.90;;;;;;5132303;28;20288;-86
2023/10/21 09:57:54;;;;;;;1379.27;470.03;;;13.60;99.90;;;;;;5131951;28;20349;-86
2023/10/21 10:00:20;;;;;;;1378.87;472.67;;;13.70;99.90;;;;;;5132160;28;20046;-86
2023/10/21 10:02:48;;;;;;;1493.57;524.90;;;13.80;99.90;;;;;;5132476;28;20357;-86
2023/10/21 10:05:16;;;;;;;1388.23;462.60;;;13.80;99.90;;;;;;5133118;28;20672;-86
2023/10/21 10:07:44;;;;;;;1387.17;447.77;;;13.80;99.90;;;;;;5134717;27;20289;-86
2023/10/21 10:10:12;;;;;;;1389.87;448.83;;;13.90;99.90;;;;;;5136103;27;20324;-86
2023/10/21 10:13:02;;;;;;;1501.33;526.50;;;13.90;99.90;;;;;;5135684;27;20295;-86
2023/10/21 10:15:31;;;;;;;1390.73;470.27;;;13.90;99.90;;;;;;5118933;27;20316;-85
2023/10/21 10:17:58;;;;;;;1489.17;530.07;;;13.90;99.90;;;;;;5155150;27;20295;-87
2023/10/21 10:20:25;;;;;;;1500.07;532.67;;;14.00;99.90;;;;;;5148487;27;20043;-86
2023/10/21 10:23:07;;;;;;;1494.83;531.80;;;14.00;99.90;;;;;;5141070;27;20118;-87
2023/10/21 10:25:49;;;;;;;1390.27;473.67;;;14.00;99.90;;;;;;5129069;27;20535;-86
2023/10/21 10:28:17;;;;;;;1498.47;532.57;;;14.00;99.90;;;;;;5135624;27;20387;-85
2023/10/21 10:30:44;;;;;;;1392.00;480.17;;;14.00;99.90;;;;;;5118442;27;20043;-86
2023/10/21 10:33:15;;;;;;;1486.70;531.47;;;14.00;99.90;;;;;;5137805;27;20603;-86
2023/10/21 10:35:48;;;;;;;1498.13;535.00;;;14.00;99.90;;;;;;5135585;27;20039;-86
2023/10/21 10:38:25;;;;;;;1501.83;530.73;;;14.00;99.90;;;;;;5135648;27;20046;-87
2023/10/21 10:40:52;;;;;;;1499.03;534.10;;;14.10;99.90;;;;;;5136682;27;20398;-87
2023/10/21 10:43:19;;;;;;;1497.10;533.10;;;14.10;99.90;;;;;;5135733;27;20062;-86
2023/10/21 10:45:45;;;;;;;1392.77;489.37;;;14.10;99.90;;;;;;5136536;27;20039;-86
2023/10/21 10:48:12;;;;;;;1390.43;497.20;;;14.10;99.90;;;;;;5137630;27;20617;-84
2023/10/21 10:50:38;;;;;;;1390.63;492.27;;;14.10;99.90;;;;;;5134421;27;20050;-86
2023/10/21 10:53:17;;;;;;;1491.60;534.23;;;14.00;99.90;;;;;;5131475;27;20043;-87
2023/10/21 10:55:48;;;;;;;1385.77;508.93;;;14.00;99.90;;;;;;5100876;27;20498;-85
2023/10/21 10:58:15;;;;;;;1476.87;540.20;;;14.00;99.90;;;;;;5133354;27;20115;-87
2023/10/21 11:00:42;;;;;;;1477.10;536.83;;;14.10;99.90;;;;;;5137001;27;20043;-86
2023/10/21 11:03:08;;;;;;;1482.73;538.40;;;14.00;99.90;;;;;;5135651;27;20043;-86
2023/10/21 11:05:37;;;;;;;1477.77;540.30;;;14.10;99.90;;;;;;5101566;27;20087;-85
2023/10/21 11:08:04;;;;;;;1480.70;536.83;;;14.10;99.90;;;;;;5157200;27;20118;-86
2023/10/21 11:10:31;;;;;;;1483.00;538.57;;;14.10;99.90;;;;;;5156022;27;20046;-85
2023/10/21 11:12:56;;;;;;;1482.17;536.77;;;14.00;99.90;;;;;;5155685;27;20058;-85
2023/10/21 11:15:23;;;;;;;1377.63;497.27;;;14.10;99.90;;;;;;5154128;27;20043;-85
2023/10/21 11:17:52;;;;;;;1466.87;535.70;;;14.00;99.90;;;;;;5147134;27;20047;-86
2023/10/21 11:20:19;;;;;;;1464.80;536.27;;;14.00;99.90;;;;;;5135852;27;20126;-85
2023/10/21 11:22:45;;;;;;;1380.00;504.10;;;14.10;99.90;;;;;;5136255;27;20140;-86
2023/10/21 11:25:11;;;;;;;1470.63;541.60;;;14.20;99.90;;;;;;5117884;27;20043;-86
2023/10/21 11:27:40;;;;;;;1373.53;504.90;;;14.20;99.90;;;;;;5130497;27;20050;-85
2023/10/21 11:30:08;;;;;;;1373.90;503.77;;;14.20;99.90;;;;;;5114675;28;20365;-84
2023/10/21 11:32:36;;;;;;;1465.70;543.27;;;14.20;99.90;;;;;;5127081;27;20118;-84
2023/10/21 11:35:09;;;;;;;1458.97;539.57;;;14.10;99.90;;;;;;5117236;27;20046;-84
2023/10/21 11:37:36;;;;;;;1366.20;507.77;;;14.10;99.90;;;;;;5149182;27;20086;-84
2023/10/21 11:40:02;;;;;;;1454.47;537.37;;;14.10;99.90;;;;;;5155247;27;20039;-85
2023/10/21 11:42:28;;;;;;;1454.97;544.83;;;14.20;99.90;;;;;;5130115;27;20047;-83
2023/10/21 11:44:56;;;;;;;1367.03;507.83;;;14.20;99.90;;;;;;5137747;27;20050;-83
2023/10/21 11:47:25;;;;;;;1463.97;541.97;;;14.20;99.90;;;;;;5134305;27;20067;-85
2023/10/21 11:49:52;;;;;;;1453.87;539.27;;;14.20;99.90;;;;;;5135566;27;20078;-85
2023/10/21 11:52:18;;;;;;;1454.80;539.30;;;14.30;99.90;;;;;;5145810;27;20031;-83
2023/10/21 11:54:48;;;;;;;1483.10;532.97;;;14.50;99.90;;;;;;5135335;27;20046;-84
2023/10/21 12:11:04;;;;;;;1371.72;506.77;;;14.70;99.90;;;;;;5054767;28;20048;-84
2023/10/21 12:39:37;;;;;;;1363.57;550.63;;;14.10;99.90;;;;;;4998107;28;20073;-87
2023/10/21 12:42:18;;;;;;;1441.33;554.63;;;14.20;99.90;;;;;;5011010;28;20053;-86